sensor_id;sensor_type;location;lat;lon;timestamp;P1;durP1;ratioP1;P2;durP2;ratioP2
10442;SDS011;5269;51.146;16.986;2022-12-29T00:00:02;1.85;;;1.75;;
10442;SDS011;5269;51.146;16.986;2022-12-29T00:02:30;2.58;;;1.80;;
10442;SDS011;5269;51.146;16.986;2022-12-29T00:04:59;1.73;;;1.63;;
10442;SDS011;5269;51.146;16.986;2022-12-29T00:07:26;2.53;;;1.67;;
10442;SDS011;5269;51.146;16.986;2022-12-29T00:09:53;1.90;;;1.70;;
10442;SDS011;5269;51.146;16.986;2022-12-29T00:12:20;2.72;;;1.63;;
10442;SDS011;5269;51.146;16.986;2022-12-29T00:14:46;1.90;;;1.80;;
10442;SDS011;5269;51.146;16.986;2022-12-29T00:17:32;3.70;;;2.30;;
10442;SDS011;5269;51.146;16.986;2022-12-29T00:19:59;2.55;;;2.17;;
10442;SDS011;5269;51.146;16.986;2022-12-29T00:22:43;3.47;;;2.25;;
10442;SDS011;5269;51.146;16.986;2022-12-29T00:25:27;2.55;;;2.20;;
10442;SDS011;5269;51.146;16.986;2022-12-29T00:28:11;2.25;;;2.00;;
10442;SDS011;5269;51.146;16.986;2022-12-29T00:30:58;2.78;;;2.30;;
10442;SDS011;5269;51.146;16.986;2022-12-29T00:33:44;2.65;;;2.30;;
10442;SDS011;5269;51.146;16.986;2022-12-29T00:36:30;2.30;;;2.10;;
10442;SDS011;5269;51.146;16.986;2022-12-29T00:39:00;3.05;;;2.05;;
10442;SDS011;5269;51.146;16.986;2022-12-29T00:41:47;2.33;;;2.03;;
10442;SDS011;5269;51.146;16.986;2022-12-29T00:44:31;4.43;;;2.33;;
10442;SDS011;5269;51.146;16.986;2022-12-29T00:46:58;3.05;;;2.30;;
10442;SDS011;5269;51.146;16.986;2022-12-29T00:49:29;2.20;;;1.92;;
10442;SDS011;5269;51.146;16.986;2022-12-29T00:51:56;2.97;;;2.10;;
10442;SDS011;5269;51.146;16.986;2022-12-29T00:54:25;3.72;;;2.13;;
10442;SDS011;5269;51.146;16.986;2022-12-29T00:56:52;3.08;;;2.08;;
10442;SDS011;5269;51.146;16.986;2022-12-29T00:59:19;2.63;;;2.42;;
10442;SDS011;5269;51.146;16.986;2022-12-29T01:01:49;2.80;;;2.40;;
10442;SDS011;5269;51.146;16.986;2022-12-29T01:04:17;2.88;;;2.38;;
10442;SDS011;5269;51.146;16.986;2022-12-29T01:06:46;2.63;;;2.30;;
10442;SDS011;5269;51.146;16.986;2022-12-29T01:09:14;3.60;;;2.22;;
10442;SDS011;5269;51.146;16.986;2022-12-29T01:11:59;2.67;;;2.10;;
10442;SDS011;5269;51.146;16.986;2022-12-29T01:14:26;4.13;;;2.30;;
10442;SDS011;5269;51.146;16.986;2022-12-29T01:16:53;2.67;;;2.30;;
10442;SDS011;5269;51.146;16.986;2022-12-29T01:19:21;2.38;;;2.15;;
10442;SDS011;5269;51.146;16.986;2022-12-29T01:21:49;2.95;;;2.03;;
10442;SDS011;5269;51.146;16.986;2022-12-29T01:24:16;2.40;;;2.17;;
10442;SDS011;5269;51.146;16.986;2022-12-29T01:26:45;2.40;;;2.20;;
10442;SDS011;5269;51.146;16.986;2022-12-29T01:29:12;2.35;;;2.15;;
10442;SDS011;5269;51.146;16.986;2022-12-29T01:31:42;2.38;;;2.00;;
10442;SDS011;5269;51.146;16.986;2022-12-29T01:34:09;1.90;;;1.60;;
10442;SDS011;5269;51.146;16.986;2022-12-29T01:36:36;2.80;;;1.90;;
10442;SDS011;5269;51.146;16.986;2022-12-29T01:39:04;2.95;;;1.80;;
10442;SDS011;5269;51.146;16.986;2022-12-29T01:41:31;2.10;;;1.90;;
10442;SDS011;5269;51.146;16.986;2022-12-29T01:43:58;2.15;;;1.60;;
10442;SDS011;5269;51.146;16.986;2022-12-29T01:46:27;2.38;;;1.92;;
10442;SDS011;5269;51.146;16.986;2022-12-29T01:48:58;2.40;;;1.80;;
10442;SDS011;5269;51.146;16.986;2022-12-29T01:51:31;2.33;;;1.65;;
10442;SDS011;5269;51.146;16.986;2022-12-29T01:54:00;1.88;;;1.70;;
10442;SDS011;5269;51.146;16.986;2022-12-29T01:56:32;2.85;;;1.73;;
10442;SDS011;5269;51.146;16.986;2022-12-29T01:59:00;1.98;;;1.65;;
10442;SDS011;5269;51.146;16.986;2022-12-29T02:01:31;2.05;;;1.80;;
10442;SDS011;5269;51.146;16.986;2022-12-29T02:03:58;2.97;;;1.80;;
10442;SDS011;5269;51.146;16.986;2022-12-29T02:06:26;2.67;;;1.80;;
10442;SDS011;5269;51.146;16.986;2022-12-29T02:08:58;2.92;;;1.80;;
10442;SDS011;5269;51.146;16.986;2022-12-29T02:11:26;2.13;;;1.80;;
10442;SDS011;5269;51.146;16.986;2022-12-29T02:13:57;3.60;;;1.90;;
10442;SDS011;5269;51.146;16.986;2022-12-29T02:16:37;3.13;;;2.10;;
10442;SDS011;5269;51.146;16.986;2022-12-29T02:19:21;2.15;;;1.75;;
10442;SDS011;5269;51.146;16.986;2022-12-29T02:22:11;3.10;;;1.70;;
10442;SDS011;5269;51.146;16.986;2022-12-29T02:24:57;2.15;;;1.92;;
10442;SDS011;5269;51.146;16.986;2022-12-29T02:27:40;2.03;;;1.80;;
10442;SDS011;5269;51.146;16.986;2022-12-29T02:30:30;2.03;;;1.80;;
10442;SDS011;5269;51.146;16.986;2022-12-29T02:33:20;3.85;;;1.92;;
10442;SDS011;5269;51.146;16.986;2022-12-29T02:35:56;3.42;;;1.90;;
10442;SDS011;5269;51.146;16.986;2022-12-29T02:38:37;2.45;;;1.88;;
10442;SDS011;5269;51.146;16.986;2022-12-29T02:41:19;2.55;;;1.65;;
10442;SDS011;5269;51.146;16.986;2022-12-29T02:43:49;2.63;;;1.80;;
10442;SDS011;5269;51.146;16.986;2022-12-29T02:46:26;3.80;;;1.52;;
10442;SDS011;5269;51.146;16.986;2022-12-29T02:49:01;2.47;;;1.50;;
10442;SDS011;5269;51.146;16.986;2022-12-29T02:51:34;2.53;;;1.65;;
10442;SDS011;5269;51.146;16.986;2022-12-29T02:54:06;1.85;;;1.60;;
10442;SDS011;5269;51.146;16.986;2022-12-29T02:56:50;2.90;;;1.85;;
10442;SDS011;5269;51.146;16.986;2022-12-29T02:59:17;3.00;;;1.73;;
10442;SDS011;5269;51.146;16.986;2022-12-29T03:01:51;1.50;;;1.40;;
10442;SDS011;5269;51.146;16.986;2022-12-29T03:04:56;2.85;;;1.60;;
10442;SDS011;5269;51.146;16.986;2022-12-29T03:07:33;1.88;;;1.52;;
10442;SDS011;5269;51.146;16.986;2022-12-29T03:10:09;3.10;;;1.83;;
10442;SDS011;5269;51.146;16.986;2022-12-29T03:12:46;2.38;;;1.60;;
10442;SDS011;5269;51.146;16.986;2022-12-29T03:15:39;1.65;;;1.50;;
10442;SDS011;5269;51.146;16.986;2022-12-29T03:18:37;2.13;;;1.90;;
10442;SDS011;5269;51.146;16.986;2022-12-29T03:21:12;3.05;;;2.00;;
10442;SDS011;5269;51.146;16.986;2022-12-29T03:23:43;2.67;;;2.05;;
10442;SDS011;5269;51.146;16.986;2022-12-29T03:26:14;3.92;;;1.85;;
10442;SDS011;5269;51.146;16.986;2022-12-29T03:28:44;3.35;;;1.60;;
10442;SDS011;5269;51.146;16.986;2022-12-29T03:31:15;1.75;;;1.60;;
10442;SDS011;5269;51.146;16.986;2022-12-29T03:33:45;1.48;;;1.33;;
10442;SDS011;5269;51.146;16.986;2022-12-29T03:36:20;1.50;;;1.40;;
10442;SDS011;5269;51.146;16.986;2022-12-29T03:38:53;1.52;;;1.42;;
10442;SDS011;5269;51.146;16.986;2022-12-29T03:41:26;1.52;;;1.42;;
10442;SDS011;5269;51.146;16.986;2022-12-29T03:43:56;1.52;;;1.42;;
10442;SDS011;5269;51.146;16.986;2022-12-29T03:46:23;1.83;;;1.50;;
10442;SDS011;5269;51.146;16.986;2022-12-29T03:48:51;3.08;;;1.65;;
10442;SDS011;5269;51.146;16.986;2022-12-29T03:51:18;2.20;;;2.00;;
10442;SDS011;5269;51.146;16.986;2022-12-29T03:53:45;1.83;;;1.73;;
10442;SDS011;5269;51.146;16.986;2022-12-29T03:56:12;2.03;;;1.88;;
10442;SDS011;5269;51.146;16.986;2022-12-29T03:58:39;2.60;;;1.80;;
10442;SDS011;5269;51.146;16.986;2022-12-29T04:01:05;2.40;;;1.75;;
10442;SDS011;5269;51.146;16.986;2022-12-29T04:03:33;3.17;;;1.85;;
10442;SDS011;5269;51.146;16.986;2022-12-29T04:06:01;2.20;;;1.90;;
10442;SDS011;5269;51.146;16.986;2022-12-29T04:08:28;3.13;;;1.98;;
10442;SDS011;5269;51.146;16.986;2022-12-29T04:10:55;2.28;;;1.90;;
10442;SDS011;5269;51.146;16.986;2022-12-29T04:13:21;2.30;;;2.10;;
10442;SDS011;5269;51.146;16.986;2022-12-29T04:15:48;2.35;;;1.90;;
10442;SDS011;5269;51.146;16.986;2022-12-29T04:18:15;2.10;;;1.90;;
10442;SDS011;5269;51.146;16.986;2022-12-29T04:20:43;1.58;;;1.48;;
10442;SDS011;5269;51.146;16.986;2022-12-29T04:23:29;3.05;;;1.80;;
10442;SDS011;5269;51.146;16.986;2022-12-29T04:25:57;1.92;;;1.75;;
10442;SDS011;5269;51.146;16.986;2022-12-29T04:28:24;1.85;;;1.75;;
10442;SDS011;5269;51.146;16.986;2022-12-29T04:30:51;2.08;;;1.88;;
10442;SDS011;5269;51.146;16.986;2022-12-29T04:33:18;2.70;;;2.00;;
10442;SDS011;5269;51.146;16.986;2022-12-29T04:35:46;2.20;;;2.08;;
10442;SDS011;5269;51.146;16.986;2022-12-29T04:38:13;2.90;;;2.08;;
10442;SDS011;5269;51.146;16.986;2022-12-29T04:40:43;1.67;;;1.58;;
10442;SDS011;5269;51.146;16.986;2022-12-29T04:43:11;2.28;;;1.85;;
10442;SDS011;5269;51.146;16.986;2022-12-29T04:45:38;4.07;;;1.92;;
10442;SDS011;5269;51.146;16.986;2022-12-29T04:48:08;4.53;;;1.73;;
10442;SDS011;5269;51.146;16.986;2022-12-29T04:50:35;2.47;;;1.70;;
10442;SDS011;5269;51.146;16.986;2022-12-29T04:53:02;2.28;;;1.63;;
10442;SDS011;5269;51.146;16.986;2022-12-29T04:55:29;1.75;;;1.60;;
10442;SDS011;5269;51.146;16.986;2022-12-29T04:57:57;1.70;;;1.60;;
10442;SDS011;5269;51.146;16.986;2022-12-29T05:00:24;1.67;;;1.58;;
10442;SDS011;5269;51.146;16.986;2022-12-29T05:02:51;1.88;;;1.50;;
10442;SDS011;5269;51.146;16.986;2022-12-29T05:05:18;1.73;;;1.63;;
10442;SDS011;5269;51.146;16.986;2022-12-29T05:07:45;2.13;;;1.63;;
10442;SDS011;5269;51.146;16.986;2022-12-29T05:10:12;2.22;;;1.40;;
10442;SDS011;5269;51.146;16.986;2022-12-29T05:12:39;1.58;;;1.40;;
10442;SDS011;5269;51.146;16.986;2022-12-29T05:15:08;1.42;;;1.33;;
10442;SDS011;5269;51.146;16.986;2022-12-29T05:17:36;1.65;;;1.40;;
10442;SDS011;5269;51.146;16.986;2022-12-29T05:20:03;1.60;;;1.50;;
10442;SDS011;5269;51.146;16.986;2022-12-29T05:22:31;1.60;;;1.50;;
10442;SDS011;5269;51.146;16.986;2022-12-29T05:24:58;2.05;;;1.75;;
10442;SDS011;5269;51.146;16.986;2022-12-29T05:27:25;1.70;;;1.60;;
10442;SDS011;5269;51.146;16.986;2022-12-29T05:29:52;1.63;;;1.52;;
10442;SDS011;5269;51.146;16.986;2022-12-29T05:32:20;1.58;;;1.48;;
10442;SDS011;5269;51.146;16.986;2022-12-29T05:34:47;1.65;;;1.55;;
10442;SDS011;5269;51.146;16.986;2022-12-29T05:37:14;2.05;;;1.70;;
10442;SDS011;5269;51.146;16.986;2022-12-29T05:39:47;1.83;;;1.65;;
10442;SDS011;5269;51.146;16.986;2022-12-29T05:42:14;2.45;;;1.67;;
10442;SDS011;5269;51.146;16.986;2022-12-29T05:44:41;1.80;;;1.70;;
10442;SDS011;5269;51.146;16.986;2022-12-29T05:47:08;1.85;;;1.75;;
10442;SDS011;5269;51.146;16.986;2022-12-29T05:49:37;1.88;;;1.77;;
10442;SDS011;5269;51.146;16.986;2022-12-29T05:52:05;2.15;;;1.90;;
10442;SDS011;5269;51.146;16.986;2022-12-29T05:54:32;2.25;;;1.70;;
10442;SDS011;5269;51.146;16.986;2022-12-29T05:57:01;3.30;;;1.88;;
10442;SDS011;5269;51.146;16.986;2022-12-29T05:59:29;2.00;;;1.90;;
10442;SDS011;5269;51.146;16.986;2022-12-29T06:01:56;2.90;;;2.13;;
10442;SDS011;5269;51.146;16.986;2022-12-29T06:04:25;2.15;;;1.88;;
10442;SDS011;5269;51.146;16.986;2022-12-29T06:06:53;3.20;;;2.42;;
10442;SDS011;5269;51.146;16.986;2022-12-29T06:09:20;2.10;;;1.90;;
10442;SDS011;5269;51.146;16.986;2022-12-29T06:11:48;4.32;;;2.47;;
10442;SDS011;5269;51.146;16.986;2022-12-29T06:14:14;2.95;;;2.05;;
10442;SDS011;5269;51.146;16.986;2022-12-29T06:16:41;3.78;;;2.30;;
10442;SDS011;5269;51.146;16.986;2022-12-29T06:19:08;2.40;;;2.10;;
10442;SDS011;5269;51.146;16.986;2022-12-29T06:21:35;2.22;;;1.92;;
10442;SDS011;5269;51.146;16.986;2022-12-29T06:24:04;3.83;;;2.20;;
10442;SDS011;5269;51.146;16.986;2022-12-29T06:26:32;2.15;;;1.95;;
10442;SDS011;5269;51.146;16.986;2022-12-29T06:28:59;3.35;;;2.30;;
10442;SDS011;5269;51.146;16.986;2022-12-29T06:31:26;3.28;;;2.33;;
10442;SDS011;5269;51.146;16.986;2022-12-29T06:33:53;3.65;;;2.42;;
10442;SDS011;5269;51.146;16.986;2022-12-29T06:36:20;2.78;;;2.40;;
10442;SDS011;5269;51.146;16.986;2022-12-29T06:38:47;3.53;;;2.60;;
10442;SDS011;5269;51.146;16.986;2022-12-29T06:41:18;3.22;;;2.58;;
10442;SDS011;5269;51.146;16.986;2022-12-29T06:43:45;2.80;;;2.30;;
10442;SDS011;5269;51.146;16.986;2022-12-29T06:46:12;3.50;;;2.55;;
10442;SDS011;5269;51.146;16.986;2022-12-29T06:48:39;2.45;;;2.22;;
10442;SDS011;5269;51.146;16.986;2022-12-29T06:51:07;3.45;;;2.20;;
10442;SDS011;5269;51.146;16.986;2022-12-29T06:53:34;2.63;;;2.30;;
10442;SDS011;5269;51.146;16.986;2022-12-29T06:56:01;2.92;;;2.67;;
10442;SDS011;5269;51.146;16.986;2022-12-29T06:58:30;3.05;;;2.45;;
10442;SDS011;5269;51.146;16.986;2022-12-29T07:00:56;3.30;;;2.22;;
10442;SDS011;5269;51.146;16.986;2022-12-29T07:03:23;3.92;;;2.20;;
10442;SDS011;5269;51.146;16.986;2022-12-29T07:05:50;1.98;;;1.70;;
10442;SDS011;5269;51.146;16.986;2022-12-29T07:08:17;2.72;;;2.03;;
10442;SDS011;5269;51.146;16.986;2022-12-29T07:10:45;2.13;;;1.92;;
10442;SDS011;5269;51.146;16.986;2022-12-29T07:13:12;2.45;;;2.20;;
10442;SDS011;5269;51.146;16.986;2022-12-29T07:15:40;2.00;;;1.90;;
10442;SDS011;5269;51.146;16.986;2022-12-29T07:18:07;1.80;;;1.70;;
10442;SDS011;5269;51.146;16.986;2022-12-29T07:20:34;2.38;;;1.98;;
10442;SDS011;5269;51.146;16.986;2022-12-29T07:23:01;2.80;;;1.98;;
10442;SDS011;5269;51.146;16.986;2022-12-29T07:25:28;1.83;;;1.70;;
10442;SDS011;5269;51.146;16.986;2022-12-29T07:27:55;2.03;;;1.73;;
10442;SDS011;5269;51.146;16.986;2022-12-29T07:30:22;1.77;;;1.67;;
10442;SDS011;5269;51.146;16.986;2022-12-29T07:32:50;1.80;;;1.70;;
10442;SDS011;5269;51.146;16.986;2022-12-29T07:35:17;1.80;;;1.70;;
10442;SDS011;5269;51.146;16.986;2022-12-29T07:37:44;1.90;;;1.80;;
10442;SDS011;5269;51.146;16.986;2022-12-29T07:40:11;1.80;;;1.70;;
10442;SDS011;5269;51.146;16.986;2022-12-29T07:42:40;6.40;;;2.17;;
10442;SDS011;5269;51.146;16.986;2022-12-29T07:48:43;1.70;;;1.60;;
10442;SDS011;5269;51.146;16.986;2022-12-29T07:51:15;2.30;;;2.10;;
10442;SDS011;5269;51.146;16.986;2022-12-29T07:53:42;2.47;;;2.00;;
10442;SDS011;5269;51.146;16.986;2022-12-29T07:56:09;3.03;;;2.10;;
10442;SDS011;5269;51.146;16.986;2022-12-29T07:58:36;1.70;;;1.60;;
10442;SDS011;5269;51.146;16.986;2022-12-29T08:01:03;2.10;;;1.80;;
10442;SDS011;5269;51.146;16.986;2022-12-29T08:03:30;2.10;;;1.90;;
10442;SDS011;5269;51.146;16.986;2022-12-29T08:06:00;2.42;;;1.92;;
10442;SDS011;5269;51.146;16.986;2022-12-29T08:08:27;2.38;;;1.92;;
10442;SDS011;5269;51.146;16.986;2022-12-29T08:10:54;2.70;;;1.98;;
10442;SDS011;5269;51.146;16.986;2022-12-29T08:13:21;2.20;;;1.95;;
10442;SDS011;5269;51.146;16.986;2022-12-29T08:15:48;3.10;;;1.85;;
10442;SDS011;5269;51.146;16.986;2022-12-29T08:18:15;2.00;;;1.90;;
10442;SDS011;5269;51.146;16.986;2022-12-29T08:20:41;2.00;;;1.80;;
10442;SDS011;5269;51.146;16.986;2022-12-29T08:23:10;1.90;;;1.80;;
10442;SDS011;5269;51.146;16.986;2022-12-29T08:25:36;2.10;;;1.90;;
10442;SDS011;5269;51.146;16.986;2022-12-29T08:31:10;2.90;;;1.90;;
10442;SDS011;5269;51.146;16.986;2022-12-29T08:33:37;2.10;;;1.90;;
10442;SDS011;5269;51.146;16.986;2022-12-29T08:36:05;2.30;;;1.60;;
10442;SDS011;5269;51.146;16.986;2022-12-29T08:38:34;2.33;;;2.13;;
10442;SDS011;5269;51.146;16.986;2022-12-29T08:41:01;2.83;;;1.90;;
10442;SDS011;5269;51.146;16.986;2022-12-29T08:43:28;1.90;;;1.80;;
10442;SDS011;5269;51.146;16.986;2022-12-29T08:45:56;2.30;;;2.00;;
10442;SDS011;5269;51.146;16.986;2022-12-29T08:48:23;3.33;;;1.98;;
10442;SDS011;5269;51.146;16.986;2022-12-29T08:50:50;3.15;;;2.40;;
10442;SDS011;5269;51.146;16.986;2022-12-29T08:53:17;2.67;;;2.20;;
10442;SDS011;5269;51.146;16.986;2022-12-29T08:55:46;6.40;;;2.30;;
10442;SDS011;5269;51.146;16.986;2022-12-29T08:58:13;4.35;;;2.97;;
10442;SDS011;5269;51.146;16.986;2022-12-29T09:00:41;4.25;;;2.42;;
10442;SDS011;5269;51.146;16.986;2022-12-29T09:03:09;4.20;;;2.67;;
10442;SDS011;5269;51.146;16.986;2022-12-29T09:05:35;3.08;;;2.38;;
10442;SDS011;5269;51.146;16.986;2022-12-29T09:08:03;4.60;;;3.03;;
10442;SDS011;5269;51.146;16.986;2022-12-29T09:10:30;4.53;;;3.00;;
10442;SDS011;5269;51.146;16.986;2022-12-29T09:12:58;4.47;;;3.03;;
10442;SDS011;5269;51.146;16.986;2022-12-29T09:15:25;5.40;;;3.00;;
10442;SDS011;5269;51.146;16.986;2022-12-29T09:17:52;3.53;;;2.75;;
10442;SDS011;5269;51.146;16.986;2022-12-29T09:20:21;4.30;;;2.85;;
10442;SDS011;5269;51.146;16.986;2022-12-29T09:22:48;2.92;;;2.50;;
10442;SDS011;5269;51.146;16.986;2022-12-29T09:25:15;4.13;;;2.80;;
10442;SDS011;5269;51.146;16.986;2022-12-29T09:27:42;4.57;;;3.00;;
10442;SDS011;5269;51.146;16.986;2022-12-29T09:30:11;5.00;;;2.95;;
10442;SDS011;5269;51.146;16.986;2022-12-29T09:32:39;3.42;;;2.78;;
10442;SDS011;5269;51.146;16.986;2022-12-29T09:35:07;3.80;;;2.90;;
10442;SDS011;5269;51.146;16.986;2022-12-29T09:37:34;4.80;;;3.03;;
10442;SDS011;5269;51.146;16.986;2022-12-29T09:40:00;3.88;;;3.03;;
10442;SDS011;5269;51.146;16.986;2022-12-29T09:42:29;4.30;;;2.88;;
10442;SDS011;5269;51.146;16.986;2022-12-29T09:45:05;4.88;;;3.13;;
10442;SDS011;5269;51.146;16.986;2022-12-29T09:47:49;6.00;;;2.75;;
10442;SDS011;5269;51.146;16.986;2022-12-29T09:50:19;3.05;;;2.72;;
10442;SDS011;5269;51.146;16.986;2022-12-29T09:53:01;5.05;;;2.63;;
10442;SDS011;5269;51.146;16.986;2022-12-29T09:55:35;3.60;;;2.20;;
10442;SDS011;5269;51.146;16.986;2022-12-29T09:58:05;2.72;;;2.30;;
10442;SDS011;5269;51.146;16.986;2022-12-29T10:00:41;2.58;;;2.35;;
10442;SDS011;5269;51.146;16.986;2022-12-29T10:03:15;2.63;;;2.28;;
10442;SDS011;5269;51.146;16.986;2022-12-29T10:05:46;3.15;;;2.10;;
10442;SDS011;5269;51.146;16.986;2022-12-29T10:08:25;2.10;;;1.98;;
10442;SDS011;5269;51.146;16.986;2022-12-29T10:11:04;3.10;;;2.40;;
10442;SDS011;5269;51.146;16.986;2022-12-29T10:13:43;2.42;;;2.20;;
10442;SDS011;5269;51.146;16.986;2022-12-29T10:16:25;5.70;;;2.30;;
10442;SDS011;5269;51.146;16.986;2022-12-29T10:19:04;3.00;;;2.40;;
10442;SDS011;5269;51.146;16.986;2022-12-29T10:21:46;2.83;;;2.58;;
10442;SDS011;5269;51.146;16.986;2022-12-29T10:24:25;4.35;;;2.90;;
10442;SDS011;5269;51.146;16.986;2022-12-29T10:26:55;3.75;;;2.83;;
10442;SDS011;5269;51.146;16.986;2022-12-29T10:29:28;3.63;;;2.50;;
10442;SDS011;5269;51.146;16.986;2022-12-29T10:32:09;2.45;;;2.25;;
10442;SDS011;5269;51.146;16.986;2022-12-29T10:34:46;2.95;;;2.20;;
10442;SDS011;5269;51.146;16.986;2022-12-29T10:37:20;2.30;;;2.10;;
10442;SDS011;5269;51.146;16.986;2022-12-29T10:39:57;2.75;;;2.20;;
10442;SDS011;5269;51.146;16.986;2022-12-29T10:42:34;3.05;;;2.20;;
10442;SDS011;5269;51.146;16.986;2022-12-29T10:45:07;3.83;;;2.00;;
10442;SDS011;5269;51.146;16.986;2022-12-29T10:47:50;4.47;;;2.50;;
10442;SDS011;5269;51.146;16.986;2022-12-29T10:50:20;2.25;;;1.95;;
10442;SDS011;5269;51.146;16.986;2022-12-29T10:52:48;3.85;;;2.30;;
10442;SDS011;5269;51.146;16.986;2022-12-29T10:55:17;3.63;;;2.38;;
10442;SDS011;5269;51.146;16.986;2022-12-29T10:57:53;2.53;;;2.30;;
10442;SDS011;5269;51.146;16.986;2022-12-29T11:00:22;2.80;;;2.20;;
10442;SDS011;5269;51.146;16.986;2022-12-29T11:05:52;3.53;;;2.33;;
10442;SDS011;5269;51.146;16.986;2022-12-29T11:08:25;2.80;;;2.22;;
10442;SDS011;5269;51.146;16.986;2022-12-29T11:10:58;2.33;;;2.08;;
10442;SDS011;5269;51.146;16.986;2022-12-29T11:13:27;3.63;;;2.03;;
10442;SDS011;5269;51.146;16.986;2022-12-29T11:15:58;2.65;;;2.28;;
10442;SDS011;5269;51.146;16.986;2022-12-29T11:18:31;3.17;;;2.28;;
10442;SDS011;5269;51.146;16.986;2022-12-29T11:21:25;3.35;;;2.30;;
10442;SDS011;5269;51.146;16.986;2022-12-29T11:23:57;3.20;;;2.20;;
10442;SDS011;5269;51.146;16.986;2022-12-29T11:26:25;4.68;;;2.00;;
10442;SDS011;5269;51.146;16.986;2022-12-29T11:29:15;2.30;;;2.10;;
10442;SDS011;5269;51.146;16.986;2022-12-29T11:31:47;3.03;;;2.10;;
10442;SDS011;5269;51.146;16.986;2022-12-29T11:34:20;2.13;;;1.90;;
10442;SDS011;5269;51.146;16.986;2022-12-29T11:36:50;2.60;;;2.40;;
10442;SDS011;5269;51.146;16.986;2022-12-29T11:39:28;2.92;;;2.30;;
10442;SDS011;5269;51.146;16.986;2022-12-29T11:42:00;2.25;;;2.05;;
10442;SDS011;5269;51.146;16.986;2022-12-29T11:44:34;2.33;;;2.13;;
10442;SDS011;5269;51.146;16.986;2022-12-29T11:47:08;2.63;;;2.08;;
10442;SDS011;5269;51.146;16.986;2022-12-29T11:49:43;3.05;;;2.42;;
10442;SDS011;5269;51.146;16.986;2022-12-29T11:52:20;2.95;;;2.13;;
10442;SDS011;5269;51.146;16.986;2022-12-29T11:54:48;2.50;;;2.30;;
10442;SDS011;5269;51.146;16.986;2022-12-29T11:57:16;2.97;;;2.20;;
10442;SDS011;5269;51.146;16.986;2022-12-29T11:59:48;3.72;;;2.20;;
10442;SDS011;5269;51.146;16.986;2022-12-29T12:02:29;3.35;;;2.35;;
10442;SDS011;5269;51.146;16.986;2022-12-29T12:05:18;2.33;;;2.10;;
10442;SDS011;5269;51.146;16.986;2022-12-29T12:07:59;2.50;;;2.28;;
10442;SDS011;5269;51.146;16.986;2022-12-29T12:10:29;2.35;;;2.15;;
10442;SDS011;5269;51.146;16.986;2022-12-29T12:13:05;3.35;;;2.35;;
10442;SDS011;5269;51.146;16.986;2022-12-29T12:18:39;3.08;;;2.05;;
10442;SDS011;5269;51.146;16.986;2022-12-29T12:21:20;3.40;;;2.45;;
10442;SDS011;5269;51.146;16.986;2022-12-29T12:26:53;3.65;;;2.17;;
10442;SDS011;5269;51.146;16.986;2022-12-29T12:29:28;2.38;;;2.10;;
10442;SDS011;5269;51.146;16.986;2022-12-29T12:32:08;2.88;;;2.50;;
10442;SDS011;5269;51.146;16.986;2022-12-29T12:34:40;3.60;;;2.40;;
10442;SDS011;5269;51.146;16.986;2022-12-29T12:37:19;3.35;;;2.42;;
10442;SDS011;5269;51.146;16.986;2022-12-29T12:40:17;3.13;;;2.58;;
10442;SDS011;5269;51.146;16.986;2022-12-29T12:42:57;4.60;;;2.25;;
10442;SDS011;5269;51.146;16.986;2022-12-29T12:45:55;3.95;;;2.17;;
10442;SDS011;5269;51.146;16.986;2022-12-29T12:48:38;3.47;;;2.47;;
10442;SDS011;5269;51.146;16.986;2022-12-29T12:51:19;2.55;;;2.22;;
10442;SDS011;5269;51.146;16.986;2022-12-29T12:54:00;3.10;;;2.30;;
10442;SDS011;5269;51.146;16.986;2022-12-29T12:56:44;2.72;;;2.50;;
10442;SDS011;5269;51.146;16.986;2022-12-29T12:59:30;3.58;;;2.30;;
10442;SDS011;5269;51.146;16.986;2022-12-29T13:02:13;2.50;;;2.30;;
10442;SDS011;5269;51.146;16.986;2022-12-29T13:07:55;4.60;;;2.55;;
10442;SDS011;5269;51.146;16.986;2022-12-29T13:10:42;3.25;;;2.50;;
10442;SDS011;5269;51.146;16.986;2022-12-29T13:16:08;2.95;;;2.60;;
10442;SDS011;5269;51.146;16.986;2022-12-29T13:18:46;3.95;;;2.50;;
10442;SDS011;5269;51.146;16.986;2022-12-29T13:21:22;5.15;;;2.70;;
10442;SDS011;5269;51.146;16.986;2022-12-29T13:23:59;2.58;;;2.35;;
10442;SDS011;5269;51.146;16.986;2022-12-29T13:26:39;5.15;;;2.78;;
10442;SDS011;5269;51.146;16.986;2022-12-29T13:29:12;3.60;;;2.63;;
10442;SDS011;5269;51.146;16.986;2022-12-29T13:31:46;3.60;;;2.58;;
10442;SDS011;5269;51.146;16.986;2022-12-29T13:34:21;2.60;;;2.40;;
10442;SDS011;5269;51.146;16.986;2022-12-29T13:36:56;3.95;;;2.80;;
10442;SDS011;5269;51.146;16.986;2022-12-29T13:39:27;5.03;;;2.90;;
10442;SDS011;5269;51.146;16.986;2022-12-29T13:42:01;4.72;;;3.10;;
10442;SDS011;5269;51.146;16.986;2022-12-29T13:44:30;5.10;;;3.05;;
10442;SDS011;5269;51.146;16.986;2022-12-29T13:47:01;4.10;;;2.80;;
10442;SDS011;5269;51.146;16.986;2022-12-29T13:49:36;3.58;;;2.60;;
10442;SDS011;5269;51.146;16.986;2022-12-29T13:52:06;6.95;;;2.78;;
10442;SDS011;5269;51.146;16.986;2022-12-29T13:54:43;3.90;;;2.63;;
10442;SDS011;5269;51.146;16.986;2022-12-29T13:57:23;4.22;;;2.90;;
10442;SDS011;5269;51.146;16.986;2022-12-29T13:59:59;3.15;;;2.50;;
10442;SDS011;5269;51.146;16.986;2022-12-29T14:02:36;3.83;;;2.85;;
10442;SDS011;5269;51.146;16.986;2022-12-29T14:07:56;2.85;;;2.65;;
10442;SDS011;5269;51.146;16.986;2022-12-29T14:10:28;3.70;;;3.17;;
10442;SDS011;5269;51.146;16.986;2022-12-29T14:13:03;3.33;;;2.92;;
10442;SDS011;5269;51.146;16.986;2022-12-29T14:15:32;3.17;;;2.63;;
10442;SDS011;5269;51.146;16.986;2022-12-29T14:18:11;3.20;;;2.83;;
10442;SDS011;5269;51.146;16.986;2022-12-29T14:20:46;3.30;;;2.80;;
10442;SDS011;5269;51.146;16.986;2022-12-29T14:23:26;3.30;;;2.70;;
10442;SDS011;5269;51.146;16.986;2022-12-29T14:26:11;3.50;;;3.00;;
10442;SDS011;5269;51.146;16.986;2022-12-29T14:28:42;3.05;;;2.70;;
10442;SDS011;5269;51.146;16.986;2022-12-29T14:36:54;4.60;;;2.92;;
10442;SDS011;5269;51.146;16.986;2022-12-29T14:39:33;5.15;;;2.95;;
10442;SDS011;5269;51.146;16.986;2022-12-29T14:42:03;5.50;;;3.45;;
10442;SDS011;5269;51.146;16.986;2022-12-29T14:44:35;4.00;;;3.30;;
10442;SDS011;5269;51.146;16.986;2022-12-29T14:47:16;4.05;;;3.65;;
10442;SDS011;5269;51.146;16.986;2022-12-29T14:49:46;5.32;;;3.90;;
10442;SDS011;5269;51.146;16.986;2022-12-29T14:52:17;4.80;;;3.53;;
10442;SDS011;5269;51.146;16.986;2022-12-29T14:54:50;5.80;;;3.45;;
10442;SDS011;5269;51.146;16.986;2022-12-29T14:57:24;6.10;;;4.05;;
10442;SDS011;5269;51.146;16.986;2022-12-29T15:00:05;6.25;;;3.95;;
10442;SDS011;5269;51.146;16.986;2022-12-29T15:02:54;6.45;;;4.07;;
10442;SDS011;5269;51.146;16.986;2022-12-29T15:05:31;7.63;;;4.28;;
10442;SDS011;5269;51.146;16.986;2022-12-29T15:08:03;7.45;;;3.85;;
10442;SDS011;5269;51.146;16.986;2022-12-29T15:10:33;6.35;;;5.03;;
10442;SDS011;5269;51.146;16.986;2022-12-29T15:13:05;5.88;;;4.45;;
10442;SDS011;5269;51.146;16.986;2022-12-29T15:15:42;6.55;;;4.60;;
10442;SDS011;5269;51.146;16.986;2022-12-29T15:18:21;8.85;;;4.65;;
10442;SDS011;5269;51.146;16.986;2022-12-29T15:20:50;5.97;;;4.78;;
10442;SDS011;5269;51.146;16.986;2022-12-29T15:23:19;7.57;;;4.90;;
10442;SDS011;5269;51.146;16.986;2022-12-29T15:25:47;10.02;;;5.00;;
10442;SDS011;5269;51.146;16.986;2022-12-29T15:28:19;8.35;;;5.72;;
10442;SDS011;5269;51.146;16.986;2022-12-29T15:30:52;10.27;;;5.88;;
10442;SDS011;5269;51.146;16.986;2022-12-29T15:33:22;7.68;;;5.95;;
10442;SDS011;5269;51.146;16.986;2022-12-29T15:35:52;9.63;;;5.85;;
10442;SDS011;5269;51.146;16.986;2022-12-29T15:38:21;8.88;;;6.53;;
10442;SDS011;5269;51.146;16.986;2022-12-29T15:40:53;9.68;;;6.20;;
10442;SDS011;5269;51.146;16.986;2022-12-29T15:43:27;7.03;;;5.10;;
10442;SDS011;5269;51.146;16.986;2022-12-29T15:46:02;6.35;;;4.97;;